Time;durP1;ratioP1;P1;durP2;ratioP2;P2;SDS_P1;SDS_P2;PMS_P1;PMS_P2;Temp;Humidity;BMP_temperature;BMP_pressure;BME280_temperature;BME280_humidity;BME280_pressure;Samples;Min_cycle;Max_cycle;Signal;HPM_P1;HPM_P2
2023/09/18 00:01:12;;;;;;;15.98;9.15;;;17.20;99.90;;;;;;5099904;27;20132;-80
2023/09/18 00:03:38;;;;;;;13.98;8.88;;;17.20;99.90;;;;;;5134405;27;20039;-81
2023/09/18 00:06:04;;;;;;;8.77;7.93;;;17.20;99.90;;;;;;5141961;27;20499;-81
2023/09/18 00:08:31;;;;;;;8.70;7.80;;;17.10;99.90;;;;;;5145722;27;20035;-80
2023/09/18 00:10:57;;;;;;;9.20;8.30;;;17.10;99.90;;;;;;5116256;27;20043;-80
2023/09/18 00:13:23;;;;;;;10.27;8.18;;;17.10;99.90;;;;;;5140935;27;20042;-82
2023/09/18 00:15:49;;;;;;;9.27;7.65;;;17.10;99.90;;;;;;5126852;27;20051;-81
2023/09/18 00:18:16;;;;;;;7.90;7.10;;;17.00;99.90;;;;;;5138087;27;20042;-80
2023/09/18 00:20:43;;;;;;;8.00;7.20;;;17.00;99.90;;;;;;5138547;27;20039;-80
2023/09/18 00:23:09;;;;;;;7.03;6.32;;;16.90;99.90;;;;;;5134005;27;20059;-80
2023/09/18 00:25:36;;;;;;;7.47;6.68;;;16.80;99.90;;;;;;5134323;27;20060;-81
2023/09/18 00:28:03;;;;;;;7.00;6.30;;;16.80;99.90;;;;;;5111391;27;20046;-81
2023/09/18 00:30:28;;;;;;;6.88;6.03;;;16.70;99.90;;;;;;5129667;27;20459;-82
2023/09/18 00:32:54;;;;;;;6.65;5.95;;;16.60;99.90;;;;;;5144294;27;20074;-81
2023/09/18 00:35:22;;;;;;;7.28;6.57;;;16.60;99.90;;;;;;5115981;27;20047;-81
2023/09/18 00:37:47;;;;;;;16.20;7.47;;;16.60;99.90;;;;;;5124195;28;20051;-80
2023/09/18 00:40:15;;;;;;;6.90;6.30;;;16.50;99.90;;;;;;5115538;28;20043;-81
2023/09/18 00:42:40;;;;;;;14.45;7.47;;;16.40;99.90;;;;;;5129514;27;20046;-80
2023/09/18 00:45:07;;;;;;;19.23;7.85;;;16.40;99.90;;;;;;5154773;27;20038;-80
2023/09/18 00:47:34;;;;;;;12.55;7.38;;;16.40;99.90;;;;;;5131043;28;20414;-81
2023/09/18 00:50:00;;;;;;;8.10;7.07;;;16.30;99.90;;;;;;5130467;27;20122;-81
2023/09/18 00:52:26;;;;;;;8.40;7.25;;;16.30;99.90;;;;;;5133901;27;20047;-82
2023/09/18 00:54:53;;;;;;;15.88;7.82;;;16.30;99.90;;;;;;5140261;27;20050;-81
2023/09/18 00:57:20;;;;;;;7.65;6.95;;;16.30;99.90;;;;;;5147680;27;20486;-81
2023/09/18 00:59:46;;;;;;;7.18;6.57;;;16.20;99.90;;;;;;5148436;27;20499;-81
2023/09/18 01:02:12;;;;;;;6.60;6.00;;;16.30;99.90;;;;;;5137972;27;20091;-82
2023/09/18 01:04:37;;;;;;;6.90;6.30;;;16.20;99.90;;;;;;5133315;27;20047;-81
2023/09/18 01:07:04;;;;;;;8.38;7.57;;;16.30;99.90;;;;;;5127117;28;20479;-82
2023/09/18 01:09:31;;;;;;;9.30;8.40;;;16.20;99.90;;;;;;5117627;27;20043;-82
2023/09/18 01:12:15;;;;;;;9.15;8.15;;;16.30;99.90;;;;;;5137562;27;20046;-81
2023/09/18 01:15:03;;;;;;;8.30;7.50;;;16.30;99.90;;;;;;5147871;27;20039;-81
2023/09/18 01:17:30;;;;;;;10.40;9.40;;;16.30;99.90;;;;;;5142027;27;20069;-82
2023/09/18 01:19:56;;;;;;;13.02;10.85;;;16.40;99.90;;;;;;5119550;27;20488;-82
2023/09/18 01:22:23;;;;;;;12.77;10.73;;;16.40;99.90;;;;;;5137706;27;20039;-82
2023/09/18 01:24:49;;;;;;;14.20;11.60;;;16.40;99.90;;;;;;5140223;27;20108;-81
2023/09/18 01:27:19;;;;;;;15.25;11.73;;;16.50;99.90;;;;;;5136088;27;20081;-82
2023/09/18 01:29:46;;;;;;;13.90;11.48;;;16.50;99.90;;;;;;5143131;27;20059;-81
2023/09/18 01:32:12;;;;;;;13.63;10.95;;;16.50;99.90;;;;;;5101897;27;20541;-82
2023/09/18 01:34:44;;;;;;;14.10;11.57;;;16.60;99.90;;;;;;5137315;27;20125;-82
2023/09/18 01:37:12;;;;;;;13.15;11.75;;;16.60;99.90;;;;;;5145696;27;20041;-82
2023/09/18 01:39:39;;;;;;;13.05;11.43;;;16.60;99.90;;;;;;5154425;27;20376;-81
2023/09/18 01:42:06;;;;;;;15.43;11.85;;;16.60;99.90;;;;;;5101999;27;20059;-80
2023/09/18 01:44:33;;;;;;;15.25;11.75;;;16.60;99.90;;;;;;5128192;27;20038;-82
2023/09/18 01:47:01;;;;;;;16.10;12.35;;;16.60;99.90;;;;;;5136095;27;20079;-82
2023/09/18 01:49:46;;;;;;;13.95;12.25;;;16.60;99.90;;;;;;5137172;27;20043;-81
2023/09/18 01:52:12;;;;;;;14.95;13.25;;;16.60;99.90;;;;;;5140710;27;20057;-81
2023/09/18 01:54:37;;;;;;;14.65;12.63;;;16.60;99.90;;;;;;5131676;27;20043;-83
2023/09/18 01:57:04;;;;;;;13.70;12.02;;;16.60;99.90;;;;;;5134642;27;20051;-82
2023/09/18 01:59:30;;;;;;;14.57;11.98;;;16.60;99.90;;;;;;5134860;27;20512;-81
2023/09/18 02:01:56;;;;;;;15.43;12.27;;;16.60;99.90;;;;;;5144738;27;20563;-81
2023/09/18 02:04:23;;;;;;;16.80;12.10;;;16.60;99.90;;;;;;5137006;27;20043;-81
2023/09/18 02:06:50;;;;;;;16.27;12.95;;;16.70;99.90;;;;;;5132028;27;20543;-82
2023/09/18 02:09:16;;;;;;;13.13;11.73;;;16.70;99.90;;;;;;5118204;27;20487;-81
2023/09/18 02:11:44;;;;;;;17.38;13.35;;;16.70;99.90;;;;;;5137113;27;20039;-82
2023/09/18 02:14:10;;;;;;;15.13;13.18;;;16.70;99.90;;;;;;5120452;27;20043;-81
2023/09/18 02:16:37;;;;;;;15.43;13.00;;;16.70;99.90;;;;;;5120803;27;20043;-81
2023/09/18 02:19:04;;;;;;;15.82;12.45;;;16.70;99.90;;;;;;5120444;27;20502;-81
2023/09/18 02:21:30;;;;;;;17.70;13.38;;;16.70;99.90;;;;;;5117576;27;20042;-81
2023/09/18 02:23:56;;;;;;;15.25;13.00;;;16.80;99.90;;;;;;5136480;27;20053;-81
2023/09/18 02:26:23;;;;;;;17.23;14.05;;;16.80;99.90;;;;;;5140698;27;20379;-83
2023/09/18 02:28:51;;;;;;;17.00;12.85;;;16.80;99.90;;;;;;5147448;27;20066;-81
2023/09/18 02:31:17;;;;;;;16.20;12.75;;;16.80;99.90;;;;;;5128922;27;20056;-81
2023/09/18 02:33:43;;;;;;;15.48;12.55;;;16.80;99.90;;;;;;5135532;27;20054;-82
2023/09/18 02:36:09;;;;;;;16.70;11.98;;;16.80;99.90;;;;;;5156886;27;20395;-81
2023/09/18 02:38:34;;;;;;;14.77;11.98;;;16.80;99.90;;;;;;5146713;27;20034;-81
2023/09/18 02:41:01;;;;;;;15.38;12.40;;;16.70;99.90;;;;;;5137477;27;20368;-80
2023/09/18 02:43:26;;;;;;;15.93;11.45;;;16.80;99.90;;;;;;5129758;27;20043;-80
2023/09/18 02:45:52;;;;;;;14.63;12.40;;;16.80;99.90;;;;;;5136087;27;20058;-81
2023/09/18 02:48:18;;;;;;;14.57;11.25;;;16.80;99.90;;;;;;5136008;27;20038;-81
2023/09/18 02:50:45;;;;;;;15.15;11.18;;;16.80;99.90;;;;;;5117501;27;20083;-81
2023/09/18 02:53:22;;;;;;;15.25;11.55;;;16.80;99.90;;;;;;5136033;27;20054;-81
2023/09/18 02:55:51;;;;;;;15.82;11.43;;;16.80;99.90;;;;;;5150788;27;20069;-80
2023/09/18 02:58:19;;;;;;;12.80;11.07;;;16.80;99.90;;;;;;5138378;27;20133;-81
2023/09/18 03:00:46;;;;;;;12.43;10.60;;;16.70;99.90;;;;;;5156471;27;20049;-80
2023/09/18 03:03:12;;;;;;;14.05;10.65;;;16.80;99.90;;;;;;5155821;27;20054;-81
2023/09/18 03:05:39;;;;;;;13.18;11.30;;;16.80;99.90;;;;;;5146764;27;20110;-81
2023/09/18 03:08:05;;;;;;;12.52;10.70;;;16.80;99.90;;;;;;5131443;27;20390;-81
2023/09/18 03:10:35;;;;;;;14.80;10.77;;;16.80;99.90;;;;;;5145290;27;20436;-82
2023/09/18 03:13:04;;;;;;;12.23;10.40;;;16.80;99.90;;;;;;5142520;27;20499;-82
2023/09/18 03:15:30;;;;;;;13.05;10.35;;;16.90;99.90;;;;;;5121082;27;20082;-82
2023/09/18 03:17:57;;;;;;;13.27;10.20;;;16.90;99.90;;;;;;5123668;27;20086;-82
2023/09/18 03:20:24;;;;;;;12.18;10.13;;;16.90;99.90;;;;;;5135091;27;20121;-82
2023/09/18 03:22:58;;;;;;;12.77;10.10;;;16.90;99.90;;;;;;5117444;27;20047;-81
2023/09/18 03:25:25;;;;;;;11.25;9.15;;;17.00;99.90;;;;;;5148695;27;20042;-83
2023/09/18 03:27:55;;;;;;;12.68;9.27;;;17.00;99.90;;;;;;5137874;27;20054;-82
2023/09/18 03:30:26;;;;;;;12.43;9.65;;;17.00;99.90;;;;;;5128630;27;20055;-82
2023/09/18 03:32:52;;;;;;;13.30;9.55;;;17.00;99.90;;;;;;5099486;27;20130;-81
2023/09/18 03:35:19;;;;;;;10.75;8.60;;;17.10;99.90;;;;;;5124914;27;20372;-80
2023/09/18 03:37:50;;;;;;;11.35;9.55;;;17.00;99.90;;;;;;5121249;27;20382;-81
2023/09/18 03:40:19;;;;;;;10.10;8.15;;;17.10;99.90;;;;;;5139338;27;20039;-81
2023/09/18 03:42:45;;;;;;;11.98;8.88;;;17.10;99.90;;;;;;5113312;27;20038;-81
2023/09/18 03:45:11;;;;;;;11.18;8.43;;;17.10;99.90;;;;;;5151713;27;20047;-81
2023/09/18 03:47:41;;;;;;;10.18;8.10;;;17.10;99.90;;;;;;5135295;27;20035;-81
2023/09/18 03:50:11;;;;;;;12.55;8.50;;;17.00;99.90;;;;;;5137329;27;20143;-81
2023/09/18 03:52:38;;;;;;;11.02;8.00;;;17.10;99.90;;;;;;5143708;27;20462;-82
2023/09/18 03:55:05;;;;;;;10.52;8.50;;;17.10;99.90;;;;;;5123993;27;20049;-82
2023/09/18 03:57:30;;;;;;;10.05;7.57;;;17.10;99.90;;;;;;5141916;27;20043;-80
2023/09/18 03:59:56;;;;;;;10.40;8.50;;;17.20;99.90;;;;;;5146700;27;20103;-80
2023/09/18 04:02:24;;;;;;;9.88;8.27;;;17.20;99.90;;;;;;5143162;27;20365;-80
2023/09/18 04:04:50;;;;;;;9.65;7.72;;;17.20;99.90;;;;;;5141042;27;20121;-81
2023/09/18 04:07:16;;;;;;;9.48;7.80;;;17.20;99.90;;;;;;5154686;27;20114;-80
2023/09/18 04:09:42;;;;;;;10.50;8.40;;;17.20;99.90;;;;;;5134391;27;20192;-80
2023/09/18 04:12:09;;;;;;;9.75;8.05;;;17.20;99.90;;;;;;5134219;27;20043;-81
2023/09/18 04:14:35;;;;;;;10.52;8.32;;;17.20;99.90;;;;;;5142707;27;20411;-81
2023/09/18 04:17:02;;;;;;;10.93;8.23;;;17.10;99.90;;;;;;5154090;27;20448;-80
2023/09/18 04:19:28;;;;;;;10.13;7.60;;;17.10;99.90;;;;;;5117311;27;20043;-80
2023/09/18 04:21:53;;;;;;;8.10;6.90;;;17.20;99.90;;;;;;5134518;27;20046;-81
2023/09/18 04:24:19;;;;;;;9.38;7.25;;;17.20;99.90;;;;;;5133424;27;20047;-80
2023/09/18 04:26:45;;;;;;;10.30;7.72;;;17.20;99.90;;;;;;5152627;27;20089;-80
2023/09/18 04:29:10;;;;;;;10.20;7.60;;;17.20;99.90;;;;;;5143806;27;20095;-80
2023/09/18 04:31:37;;;;;;;9.85;8.27;;;17.20;99.90;;;;;;5142366;27;20066;-79
2023/09/18 04:34:03;;;;;;;9.38;7.78;;;17.20;99.90;;;;;;5108330;27;20050;-80
2023/09/18 04:36:29;;;;;;;9.27;7.05;;;17.20;99.90;;;;;;5139700;27;20054;-81
2023/09/18 04:38:55;;;;;;;10.15;7.40;;;17.30;99.90;;;;;;5144788;27;20035;-81
2023/09/18 04:41:21;;;;;;;11.52;7.40;;;17.30;99.90;;;;;;5116173;27;20043;-80
2023/09/18 04:43:47;;;;;;;9.77;7.53;;;17.30;99.90;;;;;;5099863;27;20047;-80
2023/09/18 04:46:12;;;;;;;8.02;6.85;;;17.30;99.90;;;;;;5140274;27;20115;-81
2023/09/18 04:48:38;;;;;;;8.52;6.55;;;17.40;99.90;;;;;;5106600;27;20038;-82
2023/09/18 04:51:04;;;;;;;8.98;6.82;;;17.40;99.90;;;;;;5106108;27;20070;-83
2023/09/18 04:53:31;;;;;;;8.77;7.32;;;17.40;99.90;;;;;;5145104;27;20047;-80
2023/09/18 04:55:56;;;;;;;8.32;6.85;;;17.40;99.90;;;;;;5103408;27;20167;-79
2023/09/18 04:58:22;;;;;;;11.15;7.13;;;17.40;99.90;;;;;;5138199;27;20078;-80
2023/09/18 05:00:58;;;;;;;10.85;7.32;;;17.40;99.90;;;;;;5149500;27;20391;-80
2023/09/18 05:03:24;;;;;;;9.52;7.38;;;17.40;99.90;;;;;;5130067;27;20108;-80
2023/09/18 05:05:50;;;;;;;9.20;6.65;;;17.40;99.90;;;;;;5153915;27;20047;-80
2023/09/18 05:08:16;;;;;;;9.80;6.55;;;17.40;99.90;;;;;;5138177;27;20383;-83
2023/09/18 05:10:43;;;;;;;9.88;7.00;;;17.50;99.90;;;;;;5127778;27;20046;-80
2023/09/18 05:13:09;;;;;;;9.10;6.63;;;17.50;99.90;;;;;;5145829;27;20120;-81
2023/09/18 05:15:35;;;;;;;7.55;5.90;;;17.50;99.90;;;;;;5102521;27;20039;-81
2023/09/18 05:18:03;;;;;;;7.13;5.80;;;17.50;99.90;;;;;;5119749;27;20103;-82
2023/09/18 05:20:30;;;;;;;8.88;6.65;;;17.60;99.90;;;;;;5137758;27;20098;-81
2023/09/18 05:22:58;;;;;;;8.02;6.03;;;17.60;99.90;;;;;;5133808;27;20047;-82
2023/09/18 05:25:25;;;;;;;9.40;6.43;;;17.60;99.90;;;;;;5142795;27;20066;-82
2023/09/18 05:27:55;;;;;;;8.95;6.32;;;17.70;99.90;;;;;;5137496;27;20075;-82
2023/09/18 05:30:30;;;;;;;10.27;5.88;;;17.70;99.90;;;;;;5120955;27;20459;-82
2023/09/18 05:33:02;;;;;;;9.98;6.03;;;17.70;99.90;;;;;;5119080;27;20468;-82
2023/09/18 05:35:28;;;;;;;9.52;5.80;;;17.80;99.90;;;;;;5146563;27;20038;-79
2023/09/18 05:37:56;;;;;;;7.05;5.80;;;17.80;99.90;;;;;;5135763;27;20176;-81
2023/09/18 05:40:22;;;;;;;10.45;6.10;;;17.80;99.90;;;;;;5136741;27;20526;-81
2023/09/18 05:42:48;;;;;;;10.23;5.97;;;17.80;99.90;;;;;;5136939;27;20078;-82
2023/09/18 05:45:14;;;;;;;8.75;6.00;;;17.80;99.90;;;;;;5126289;27;20133;-83
2023/09/18 05:47:42;;;;;;;8.27;5.70;;;17.80;99.90;;;;;;5158090;27;20042;-83
2023/09/18 05:50:16;;;;;;;9.00;5.72;;;17.80;99.90;;;;;;5125580;27;20122;-83
2023/09/18 05:52:42;;;;;;;7.78;5.50;;;17.90;99.90;;;;;;5140026;27;20051;-82
2023/09/18 05:55:08;;;;;;;8.05;5.30;;;18.00;99.90;;;;;;5140397;27;20047;-83
2023/09/18 05:57:34;;;;;;;8.20;5.70;;;18.00;99.90;;;;;;5157038;27;20039;-83
2023/09/18 06:00:00;;;;;;;7.63;5.22;;;18.10;99.90;;;;;;5138822;27;20043;-84
2023/09/18 06:02:26;;;;;;;6.93;5.28;;;18.10;99.90;;;;;;5136526;27;20046;-83
2023/09/18 06:04:57;;;;;;;7.15;4.70;;;18.10;99.90;;;;;;5136822;27;20126;-82
2023/09/18 06:07:24;;;;;;;7.78;5.53;;;18.20;99.90;;;;;;5118857;27;20042;-83
2023/09/18 06:09:50;;;;;;;7.78;5.38;;;18.30;99.90;;;;;;5118760;27;20441;-82
2023/09/18 06:12:16;;;;;;;8.75;4.78;;;18.30;99.90;;;;;;5118483;27;20039;-82
2023/09/18 06:14:42;;;;;;;8.50;4.90;;;18.40;99.90;;;;;;5145352;27;20031;-66
2023/09/18 06:17:09;;;;;;;7.55;5.03;;;18.50;99.90;;;;;;5148834;27;20065;-66
2023/09/18 06:19:35;;;;;;;6.72;4.78;;;18.50;99.90;;;;;;5150289;27;20047;-66
2023/09/18 06:22:02;;;;;;;7.35;4.82;;;18.60;99.90;;;;;;5131520;27;20051;-66
2023/09/18 06:24:27;;;;;;;7.75;5.43;;;18.60;99.90;;;;;;5136273;27;20058;-66
2023/09/18 06:26:53;;;;;;;7.45;5.20;;;18.60;99.90;;;;;;5136575;27;20043;-66
2023/09/18 06:29:19;;;;;;;11.98;5.43;;;18.70;99.90;;;;;;5136241;27;20046;-66
2023/09/18 06:31:46;;;;;;;9.35;5.10;;;18.80;99.90;;;;;;5117512;27;20059;-66
2023/09/18 06:34:11;;;;;;;8.20;4.95;;;18.80;99.90;;;;;;5146829;27;20066;-67
2023/09/18 06:36:37;;;;;;;8.32;6.00;;;18.80;99.90;;;;;;5144721;27;20442;-66
2023/09/18 06:39:03;;;;;;;7.53;5.80;;;18.70;99.90;;;;;;5136026;27;20039;-67
2023/09/18 06:41:29;;;;;;;7.53;5.45;;;18.70;99.90;;;;;;5118371;27;20483;-67
2023/09/18 06:43:55;;;;;;;8.55;5.28;;;18.60;99.90;;;;;;5150231;27;20038;-69
2023/09/18 06:46:20;;;;;;;7.82;5.68;;;18.70;99.90;;;;;;5157050;27;20097;-68
2023/09/18 06:48:49;;;;;;;8.02;5.60;;;18.70;99.90;;;;;;5142275;27;20061;-67
2023/09/18 06:51:15;;;;;;;8.88;5.35;;;18.60;99.90;;;;;;5136092;27;20500;-67
2023/09/18 06:53:41;;;;;;;8.13;5.43;;;18.60;99.90;;;;;;5135694;27;20484;-67
2023/09/18 06:56:06;;;;;;;11.20;6.38;;;18.70;99.90;;;;;;5135363;27;20039;-67
2023/09/18 06:58:32;;;;;;;9.00;6.20;;;18.70;99.90;;;;;;5135813;27;20043;-66
2023/09/18 07:00:58;;;;;;;8.43;5.97;;;18.70;99.90;;;;;;5141480;27;20042;-66
2023/09/18 07:03:23;;;;;;;8.65;6.40;;;18.70;99.90;;;;;;5152555;27;20086;-66
2023/09/18 07:05:49;;;;;;;7.60;5.57;;;18.80;99.90;;;;;;5135919;27;20387;-66
2023/09/18 07:08:19;;;;;;;10.30;5.95;;;18.80;99.90;;;;;;5117242;27;20084;-66
2023/09/18 07:10:45;;;;;;;8.73;6.38;;;18.90;99.90;;;;;;5117619;27;20491;-66
2023/09/18 07:13:14;;;;;;;10.95;7.25;;;19.00;99.90;;;;;;5135609;27;20441;-66
2023/09/18 07:15:40;;;;;;;9.30;7.25;;;19.00;99.90;;;;;;5134509;27;20043;-67
2023/09/18 07:18:05;;;;;;;8.98;6.18;;;19.00;99.90;;;;;;5148208;27;20042;-66
2023/09/18 07:20:32;;;;;;;9.57;6.65;;;18.90;99.90;;;;;;5147374;27;20091;-81
2023/09/18 07:22:58;;;;;;;10.15;6.72;;;18.80;99.90;;;;;;5131793;27;20058;-80
2023/09/18 07:25:23;;;;;;;10.38;7.53;;;18.80;99.90;;;;;;5126000;27;20384;-78
2023/09/18 07:27:49;;;;;;;9.88;7.78;;;18.80;99.90;;;;;;5117914;27;20042;-79
2023/09/18 07:30:20;;;;;;;11.30;8.23;;;18.80;99.90;;;;;;5115638;27;20103;-78
2023/09/18 07:32:46;;;;;;;9.38;6.75;;;18.80;99.90;;;;;;5127370;27;20042;-81
2023/09/18 07:35:15;;;;;;;9.52;7.25;;;18.80;99.90;;;;;;5145018;27;20510;-76
2023/09/18 07:37:41;;;;;;;10.52;7.38;;;18.90;99.90;;;;;;5137321;27;20054;-77
2023/09/18 07:40:07;;;;;;;11.10;7.30;;;18.80;99.90;;;;;;5136586;27;20486;-76
2023/09/18 07:42:33;;;;;;;9.25;7.38;;;18.90;99.90;;;;;;5137032;27;20072;-74
2023/09/18 07:44:59;;;;;;;11.48;7.90;;;18.90;99.90;;;;;;5136945;27;20078;-75
2023/09/18 07:47:25;;;;;;;9.75;7.40;;;18.90;99.90;;;;;;5136311;27;20117;-77
2023/09/18 07:49:51;;;;;;;11.50;8.13;;;19.00;99.90;;;;;;5155070;27;20066;-80
2023/09/18 07:52:17;;;;;;;10.80;8.00;;;19.00;99.90;;;;;;5133457;27;20043;-79
2023/09/18 07:54:44;;;;;;;11.38;8.10;;;19.00;99.90;;;;;;5147247;27;20070;-79
2023/09/18 07:57:09;;;;;;;9.88;7.63;;;19.10;99.90;;;;;;5154580;27;20047;-77
2023/09/18 07:59:36;;;;;;;10.30;8.05;;;19.10;99.90;;;;;;5154960;27;20121;-76
2023/09/18 08:02:02;;;;;;;14.13;8.98;;;19.20;99.90;;;;;;5153978;27;20039;-76
2023/09/18 08:04:30;;;;;;;12.82;8.75;;;19.20;99.90;;;;;;5155056;27;20078;-74
2023/09/18 08:06:56;;;;;;;11.20;8.75;;;19.20;99.90;;;;;;5154851;27;20091;-74
2023/09/18 08:09:22;;;;;;;12.23;9.43;;;19.30;99.90;;;;;;5154139;27;20502;-74
2023/09/18 08:11:49;;;;;;;11.75;8.15;;;19.30;99.90;;;;;;5150980;27;20043;-75
2023/09/18 08:14:16;;;;;;;12.77;8.55;;;19.30;99.90;;;;;;5154735;27;20403;-74
2023/09/18 08:16:42;;;;;;;9.63;7.18;;;19.30;99.90;;;;;;5124365;27;20047;-73
2023/09/18 08:19:09;;;;;;;10.52;8.00;;;19.30;99.90;;;;;;5128087;27;20091;-73
2023/09/18 08:21:35;;;;;;;11.38;8.43;;;19.30;99.90;;;;;;5131498;27;20042;-73
2023/09/18 08:24:00;;;;;;;10.38;7.50;;;19.40;99.90;;;;;;5126847;27;20046;-73
2023/09/18 08:26:27;;;;;;;8.70;6.72;;;19.40;99.90;;;;;;5154678;27;20065;-75
2023/09/18 08:28:53;;;;;;;9.20;7.45;;;19.40;99.90;;;;;;5153938;27;20042;-75
2023/09/18 08:31:18;;;;;;;11.32;7.85;;;19.30;99.90;;;;;;5153187;27;20452;-75
2023/09/18 08:33:44;;;;;;;12.23;7.32;;;19.40;99.90;;;;;;5134211;27;20059;-74
2023/09/18 08:36:10;;;;;;;9.13;7.20;;;19.30;99.90;;;;;;5154510;27;20042;-76
2023/09/18 08:38:35;;;;;;;9.93;7.00;;;19.30;99.90;;;;;;5135060;27;20038;-75
2023/09/18 08:41:02;;;;;;;10.35;7.18;;;19.40;99.90;;;;;;5154637;27;20058;-75
2023/09/18 08:43:31;;;;;;;12.30;7.63;;;19.40;99.90;;;;;;5154617;27;20046;-75
2023/09/18 08:46:01;;;;;;;11.73;7.45;;;19.40;99.90;;;;;;5154008;27;20046;-75
2023/09/18 08:48:34;;;;;;;11.80;7.88;;;19.40;99.90;;;;;;5132020;28;20043;-75
2023/09/18 08:51:03;;;;;;;9.65;7.90;;;19.50;99.90;;;;;;5154370;27;20086;-76
2023/09/18 08:53:33;;;;;;;11.00;7.70;;;19.50;99.90;;;;;;5154193;27;20448;-75
2023/09/18 08:56:01;;;;;;;11.70;7.60;;;19.50;99.90;;;;;;5118622;27;20044;-75
2023/09/18 08:58:40;;;;;;;12.63;8.02;;;19.50;99.90;;;;;;5136122;27;20130;-75
2023/09/18 09:01:09;;;;;;;12.73;8.43;;;19.50;99.90;;;;;;5153994;27;20051;-76
2023/09/18 09:03:47;;;;;;;12.38;8.30;;;19.60;99.90;;;;;;5135005;27;20039;-75
2023/09/18 09:06:13;;;;;;;10.63;8.07;;;19.70;99.90;;;;;;5152935;27;20076;-75
2023/09/18 09:08:39;;;;;;;11.85;8.05;;;19.80;99.90;;;;;;5133881;27;20039;-75
2023/09/18 09:11:05;;;;;;;13.65;8.43;;;19.90;99.90;;;;;;5151824;27;20043;-76
2023/09/18 09:13:31;;;;;;;13.05;7.30;;;19.90;99.90;;;;;;5117133;27;20043;-75
2023/09/18 09:15:58;;;;;;;10.80;7.90;;;20.00;99.90;;;;;;5135808;27;20059;-75
2023/09/18 09:18:26;;;;;;;11.05;8.20;;;20.00;99.90;;;;;;5154161;27;20121;-74
2023/09/18 09:21:00;;;;;;;11.80;7.45;;;20.10;99.90;;;;;;5154264;27;20039;-75
2023/09/18 09:23:28;;;;;;;9.02;7.28;;;20.10;99.90;;;;;;5153709;27;20078;-74
2023/09/18 09:26:11;;;;;;;10.77;6.82;;;20.20;99.90;;;;;;5153927;27;20046;-75
2023/09/18 09:28:37;;;;;;;9.15;6.95;;;20.20;99.90;;;;;;5135213;27;20499;-75
2023/09/18 09:31:03;;;;;;;8.43;6.57;;;20.30;99.90;;;;;;5156473;27;20058;-75
2023/09/18 09:33:29;;;;;;;8.40;6.45;;;20.40;99.90;;;;;;5157146;27;20443;-75
2023/09/18 09:35:56;;;;;;;7.57;5.93;;;20.40;99.90;;;;;;5157948;27;20125;-75
2023/09/18 09:38:32;;;;;;;7.10;6.22;;;20.40;99.90;;;;;;5157117;27;20039;-74
2023/09/18 09:41:00;;;;;;;7.78;5.63;;;20.40;99.90;;;;;;5139669;27;20046;-74
2023/09/18 09:43:27;;;;;;;9.73;6.07;;;20.40;99.90;;;;;;5157711;27;20046;-75
2023/09/18 09:45:58;;;;;;;6.63;5.72;;;20.40;99.90;;;;;;5157415;27;20095;-75
2023/09/18 09:48:25;;;;;;;7.10;6.38;;;20.40;99.90;;;;;;5151108;27;20039;-75
2023/09/18 09:50:53;;;;;;;7.28;5.72;;;20.50;99.90;;;;;;5156937;27;20099;-74
2023/09/18 09:53:18;;;;;;;6.75;5.50;;;20.60;99.90;;;;;;5138244;27;20043;-74
2023/09/18 09:55:53;;;;;;;5.93;5.28;;;20.70;99.90;;;;;;5156555;27;20049;-76
2023/09/18 09:58:30;;;;;;;7.05;4.93;;;20.80;99.90;;;;;;5135871;27;20505;-73
2023/09/18 10:01:02;;;;;;;7.80;5.75;;;21.00;99.90;;;;;;5128138;27;20078;-75
2023/09/18 10:03:28;;;;;;;6.93;5.05;;;21.10;99.90;;;;;;5155759;27;20436;-76
2023/09/18 10:05:56;;;;;;;6.35;4.45;;;21.10;99.90;;;;;;5151266;27;20047;-79
2023/09/18 10:08:23;;;;;;;7.05;4.78;;;21.10;99.90;;;;;;5136861;27;20030;-77
2023/09/18 10:10:52;;;;;;;5.47;4.38;;;21.00;99.90;;;;;;5154578;27;20054;-78
2023/09/18 10:13:32;;;;;;;6.05;4.43;;;20.90;99.90;;;;;;5131601;27;20042;-77
2023/09/18 10:16:02;;;;;;;4.90;4.22;;;20.90;99.90;;;;;;5138144;27;20142;-76
2023/09/18 10:18:52;;;;;;;7.10;4.40;;;20.80;99.90;;;;;;5156708;27;20486;-76
2023/09/18 10:21:33;;;;;;;5.88;4.10;;;20.90;99.90;;;;;;5129475;27;20079;-77
2023/09/18 10:24:19;;;;;;;6.35;4.28;;;21.00;99.90;;;;;;5147549;27;20051;-65
2023/09/18 10:26:51;;;;;;;6.00;3.95;;;21.10;99.90;;;;;;5156120;27;20047;-65
2023/09/18 10:29:19;;;;;;;5.38;3.90;;;21.20;99.90;;;;;;5156332;27;20042;-66
2023/09/18 10:31:46;;;;;;;4.90;3.65;;;21.20;99.90;;;;;;5155712;27;20585;-65
2023/09/18 10:34:15;;;;;;;5.07;3.13;;;21.10;99.90;;;;;;5155613;27;20099;-66
2023/09/18 10:36:48;;;;;;;4.20;3.38;;;21.10;99.90;;;;;;5156091;27;20447;-66
2023/09/18 10:39:19;;;;;;;4.30;3.10;;;21.20;99.90;;;;;;5151104;27;20042;-65
2023/09/18 10:41:47;;;;;;;4.95;3.28;;;21.30;99.90;;;;;;5154052;27;20051;-66
2023/09/18 10:44:16;;;;;;;4.28;3.30;;;21.20;99.90;;;;;;5151102;27;20494;-66
2023/09/18 10:46:42;;;;;;;4.30;3.20;;;21.40;99.90;;;;;;5130593;27;20093;-67
2023/09/18 10:49:08;;;;;;;4.50;3.20;;;21.50;99.90;;;;;;5150376;27;20046;-66
2023/09/18 10:51:34;;;;;;;3.65;3.10;;;21.50;99.90;;;;;;5136916;27;20038;-66
2023/09/18 10:54:00;;;;;;;4.63;2.97;;;21.50;99.90;;;;;;5155796;27;20043;-66
2023/09/18 10:56:26;;;;;;;4.78;3.10;;;21.70;99.90;;;;;;5147576;27;20047;-66
2023/09/18 10:58:59;;;;;;;4.20;3.05;;;21.70;99.90;;;;;;5149215;27;20114;-66
2023/09/18 11:01:27;;;;;;;3.85;2.78;;;21.80;99.90;;;;;;5149037;27;20075;-67
2023/09/18 11:03:59;;;;;;;4.25;2.95;;;21.90;99.90;;;;;;5146105;27;20078;-65
2023/09/18 11:06:26;;;;;;;3.63;2.85;;;21.80;99.90;;;;;;5149635;27;20047;-65
2023/09/18 11:09:03;;;;;;;3.65;2.40;;;22.00;99.90;;;;;;5136694;27;20046;-65
2023/09/18 11:11:32;;;;;;;3.55;2.60;;;22.00;99.90;;;;;;5154021;27;20117;-66
2023/09/18 11:13:59;;;;;;;3.72;2.22;;;22.10;99.90;;;;;;5154969;27;20118;-66
2023/09/18 11:16:28;;;;;;;4.13;2.17;;;22.10;99.90;;;;;;5136985;27;20539;-65
2023/09/18 11:19:09;;;;;;;3.25;2.20;;;21.90;99.90;;;;;;5149827;27;20039;-66
2023/09/18 11:21:35;;;;;;;3.38;2.30;;;22.00;99.90;;;;;;5131231;27;20095;-65
2023/09/18 11:24:04;;;;;;;4.43;2.28;;;22.10;99.90;;;;;;5155161;27;20042;-65
2023/09/18 11:26:35;;;;;;;6.35;2.40;;;22.20;99.90;;;;;;5149456;27;20075;-65
2023/09/18 11:29:05;;;;;;;2.75;2.25;;;22.20;99.90;;;;;;5149050;27;20102;-65
2023/09/18 11:31:43;;;;;;;3.58;2.50;;;22.10;99.90;;;;;;5154298;27;20090;-66
2023/09/18 11:34:35;;;;;;;3.47;2.05;;;21.90;99.90;;;;;;5154447;27;20057;-66
2023/09/18 11:37:04;;;;;;;4.22;2.20;;;21.80;99.90;;;;;;5144463;27;20065;-65
2023/09/18 11:39:40;;;;;;;3.00;2.10;;;21.70;99.90;;;;;;5154824;27;20054;-64
2023/09/18 11:42:11;;;;;;;4.13;2.30;;;21.80;99.90;;;;;;5136530;27;20051;-65
2023/09/18 11:44:41;;;;;;;2.90;2.22;;;21.90;99.90;;;;;;5154302;27;20045;-65
2023/09/18 11:47:18;;;;;;;3.63;2.00;;;21.80;99.90;;;;;;5143844;27;20514;-65
2023/09/18 11:49:54;;;;;;;5.63;2.28;;;21.60;99.90;;;;;;5148026;27;20128;-65
2023/09/18 11:52:21;;;;;;;4.70;2.20;;;21.70;99.90;;;;;;5153400;27;20407;-65
2023/09/18 11:54:48;;;;;;;3.53;1.90;;;21.70;99.90;;;;;;5153342;27;20447;-66
2023/09/18 11:57:14;;;;;;;3.00;1.90;;;21.90;99.90;;;;;;5135406;27;20074;-66
2023/09/18 11:59:46;;;;;;;6.22;2.13;;;22.00;99.90;;;;;;5154295;27;20042;-66
2023/09/18 12:02:20;;;;;;;2.70;1.73;;;22.20;99.90;;;;;;5152068;27;20055;-64
2023/09/18 12:04:47;;;;;;;4.03;2.00;;;22.30;99.90;;;;;;5152810;27;20042;-65
2023/09/18 12:07:13;;;;;;;2.85;1.90;;;22.20;99.90;;;;;;5150174;27;20067;-66
2023/09/18 12:09:39;;;;;;;3.33;1.88;;;22.20;99.90;;;;;;5153953;27;20043;-66
2023/09/18 12:12:07;;;;;;;4.32;1.50;;;22.30;99.90;;;;;;5153505;27;20051;-66
2023/09/18 12:14:33;;;;;;;2.65;1.60;;;22.40;99.90;;;;;;5153600;27;20050;-65
2023/09/18 12:17:03;;;;;;;2.72;1.70;;;22.50;99.90;;;;;;5154311;27;20502;-65
2023/09/18 12:19:30;;;;;;;3.10;1.83;;;22.40;99.90;;;;;;5153867;27;20103;-65
2023/09/18 12:21:56;;;;;;;3.03;1.50;;;22.30;99.90;;;;;;5154027;27;20050;-65
2023/09/18 12:24:25;;;;;;;2.85;1.83;;;22.30;99.90;;;;;;5154063;27;20080;-65
2023/09/18 12:26:52;;;;;;;2.15;1.50;;;22.10;99.90;;;;;;5149018;27;20407;-65
2023/09/18 12:29:19;;;;;;;3.40;1.50;;;22.00;99.90;;;;;;5151849;27;20077;-65
2023/09/18 12:31:45;;;;;;;4.20;1.60;;;21.90;99.90;;;;;;5154019;27;20058;-65
2023/09/18 12:34:15;;;;;;;2.28;1.58;;;21.90;99.90;;;;;;5153211;27;20043;-66
2023/09/18 12:36:47;;;;;;;3.33;1.50;;;21.80;99.90;;;;;;5135213;27;20126;-65
2023/09/18 12:39:16;;;;;;;2.13;1.35;;;21.70;99.90;;;;;;5141623;27;20046;-65
2023/09/18 12:41:44;;;;;;;3.10;1.70;;;21.70;99.90;;;;;;5141507;27;20062;-66
2023/09/18 12:44:10;;;;;;;2.55;1.70;;;21.60;99.90;;;;;;5141815;27;20046;-65